createdAt,value
2019-05-25T00:02:05.732Z,100463.67
2019-05-25T00:04:35.702Z,100459.59
2019-05-25T00:07:05.402Z,100461.99
2019-05-25T00:09:35.039Z,100458.63
2019-05-25T00:12:04.684Z,100460.28
2019-05-25T00:14:34.454Z,100455.38
2019-05-25T00:17:04.151Z,100453.22
2019-05-25T00:19:33.815Z,100454.77
2019-05-25T00:22:03.510Z,100458.45
2019-05-25T00:24:33.168Z,100460.84
2019-05-25T00:27:02.798Z,100458.22
2019-05-25T00:29:32.449Z,100458.92
2019-05-25T00:32:02.083Z,100460.00
2019-05-25T00:34:31.739Z,100448.79
2019-05-25T00:37:01.374Z,100461.64
2019-05-25T00:39:31.028Z,100458.54
2019-05-25T00:42:00.653Z,100455.08
2019-05-25T00:44:30.319Z,100452.44
2019-05-25T00:46:59.951Z,100451.51
2019-05-25T00:49:29.610Z,100445.55
2019-05-25T00:51:59.241Z,100445.05
2019-05-25T00:54:28.906Z,100450.19
2019-05-25T00:56:58.540Z,100449.36
2019-05-25T00:59:28.202Z,100445.89
2019-05-25T01:01:57.929Z,100446.35
2019-05-25T01:04:27.586Z,100441.84
2019-05-25T01:06:57.419Z,100443.39
2019-05-25T01:09:27.084Z,100444.70
2019-05-25T01:11:56.722Z,100437.67
2019-05-25T01:14:26.382Z,100439.55
2019-05-25T01:16:56.719Z,100441.45
2019-05-25T01:19:26.382Z,100434.53
2019-05-25T01:21:57.455Z,100435.73
2019-05-25T01:24:42.922Z,100435.47
2019-05-25T01:26:58.551Z,100440.84
2019-05-25T01:29:28.214Z,100432.60
2019-05-25T01:31:59.291Z,100431.18
2019-05-25T01:34:28.952Z,100435.20
2019-05-25T01:36:58.585Z,100428.16
2019-05-25T01:39:28.255Z,100432.34
2019-05-25T01:41:57.890Z,100425.64
2019-05-25T01:44:27.551Z,100430.09
2019-05-25T01:46:58.631Z,100435.84
2019-05-25T01:49:28.409Z,100426.03
2019-05-25T01:51:59.477Z,100425.79
2019-05-25T01:54:30.591Z,100424.95
2019-05-25T01:57:00.232Z,100426.86
2019-05-25T01:59:29.887Z,100431.88
2019-05-25T02:01:59.525Z,100424.72
2019-05-25T02:04:29.189Z,100422.06
2019-05-25T02:06:58.814Z,100424.16
2019-05-25T02:09:28.487Z,100423.42
2019-05-25T02:11:58.131Z,100426.23
2019-05-25T02:14:27.794Z,100422.05
2019-05-25T02:16:57.431Z,100413.72
2019-05-25T02:19:27.086Z,100417.99
2019-05-25T02:21:56.726Z,100413.32
2019-05-25T02:24:26.388Z,100416.16
2019-05-25T02:26:56.039Z,100424.27
2019-05-25T02:29:25.689Z,100415.10
2019-05-25T02:31:55.323Z,100428.11
2019-05-25T02:34:24.981Z,100416.22
2019-05-25T02:36:54.637Z,100419.91
2019-05-25T02:39:24.288Z,100414.81
2019-05-25T02:41:53.921Z,100421.66
2019-05-25T02:44:23.584Z,100415.12
2019-05-25T02:46:53.211Z,100412.47
2019-05-25T02:49:25.827Z,100416.91
2019-05-25T02:51:56.476Z,100415.98
2019-05-25T02:54:26.128Z,100412.44
2019-05-25T02:56:55.785Z,100419.48
2019-05-25T02:59:25.410Z,100420.34
2019-05-25T03:01:55.059Z,100414.05
2019-05-25T03:04:25.006Z,100412.73
2019-05-25T03:06:54.814Z,100420.83
2019-05-25T03:09:25.614Z,100426.31
2019-05-25T03:11:56.960Z,100414.29
2019-05-25T03:14:26.595Z,100419.06
2019-05-25T03:16:56.249Z,100420.15
2019-05-25T03:19:25.974Z,100417.06
2019-05-25T03:21:55.719Z,100421.00
2019-05-25T03:24:25.399Z,100429.97
2019-05-25T03:26:55.045Z,100424.72
2019-05-25T03:29:26.345Z,100422.94
2019-05-25T03:31:56.007Z,100427.95
2019-05-25T03:34:25.641Z,100431.67
2019-05-25T03:36:55.408Z,100423.11
2019-05-25T03:39:25.043Z,100422.74
2019-05-25T03:41:54.785Z,100431.83
2019-05-25T03:44:24.412Z,100438.48
2019-05-25T03:46:54.177Z,100435.62
2019-05-25T03:49:23.906Z,100439.69
2019-05-25T03:51:53.762Z,100440.53
2019-05-25T03:54:23.485Z,100439.08
2019-05-25T03:56:53.143Z,100447.66
2019-05-25T03:59:22.773Z,100444.48
2019-05-25T04:01:52.531Z,100451.05
2019-05-25T04:04:22.270Z,100457.47
2019-05-25T04:06:52.032Z,100453.91
2019-05-25T04:09:21.663Z,100452.97
2019-05-25T04:11:51.418Z,100447.36
2019-05-25T04:14:21.149Z,100456.78
2019-05-25T04:16:50.902Z,100458.23
2019-05-25T04:19:20.741Z,100452.88
2019-05-25T04:21:50.497Z,100459.44
2019-05-25T04:24:20.235Z,100449.57
2019-05-25T04:26:49.991Z,100446.09
2019-05-25T04:29:19.622Z,100454.09
2019-05-25T04:31:49.579Z,100458.73
2019-05-25T04:34:19.303Z,100461.95
2019-05-25T04:36:48.963Z,100461.70
2019-05-25T04:39:18.593Z,100465.25
2019-05-25T04:41:48.344Z,100469.77
2019-05-25T04:44:18.178Z,100465.95
2019-05-25T04:46:47.949Z,100477.89
2019-05-25T04:49:17.661Z,100476.92
2019-05-25T04:51:47.413Z,100475.98
2019-05-25T04:54:17.647Z,100479.42
2019-05-25T04:56:47.405Z,100482.38
2019-05-25T04:59:17.701Z,100484.87
2019-05-25T05:01:47.461Z,100490.22
2019-05-25T05:04:17.701Z,100496.05
2019-05-25T05:06:47.379Z,100496.64
2019-05-25T05:09:17.635Z,100495.16
2019-05-25T05:11:47.393Z,100504.67
2019-05-25T05:14:17.634Z,100491.33
2019-05-25T05:16:47.288Z,100496.66
2019-05-25T05:19:17.008Z,100502.73
2019-05-25T05:21:46.660Z,100507.70
2019-05-25T05:24:16.280Z,100522.30
2019-05-25T05:26:55.238Z,100520.98
2019-05-25T05:29:17.679Z,100520.25
2019-05-25T05:31:47.327Z,100517.36
2019-05-25T05:34:16.953Z,100524.45
2019-05-25T05:36:48.317Z,100521.09
2019-05-25T05:39:17.969Z,100524.27
2019-05-25T05:41:49.862Z,100528.69
2019-05-25T05:44:21.519Z,100523.20
2019-05-25T05:46:53.452Z,100525.32
2019-05-25T05:49:24.541Z,100526.71
2019-05-25T05:51:57.468Z,100528.92
2019-05-25T05:54:27.592Z,100533.67
2019-05-25T05:57:11.097Z,100532.57
2019-05-25T05:59:28.557Z,100529.94
2019-05-25T06:01:58.176Z,100530.31
2019-05-25T06:04:27.827Z,100530.10
2019-05-25T06:06:57.462Z,100545.66
2019-05-25T06:09:27.104Z,100533.20
2019-05-25T06:11:56.731Z,100536.91
2019-05-25T06:14:26.393Z,100538.75
2019-05-25T06:16:56.014Z,100544.48
2019-05-25T06:19:25.660Z,100553.91
2019-05-25T06:21:55.290Z,100551.48
2019-05-25T06:24:24.952Z,100553.09
2019-05-25T06:26:54.576Z,100555.63
2019-05-25T06:29:24.224Z,100552.73
2019-05-25T06:31:53.857Z,100561.69
2019-05-25T06:34:23.504Z,100555.06
2019-05-25T06:36:53.138Z,100556.14
2019-05-25T06:39:22.810Z,100555.13
2019-05-25T06:41:52.425Z,100560.93
2019-05-25T06:44:22.083Z,100558.92
2019-05-25T06:46:51.708Z,100564.20
2019-05-25T06:49:21.357Z,100573.16
2019-05-25T06:51:50.984Z,100568.30
2019-05-25T06:54:20.655Z,100570.03
2019-05-25T06:56:50.264Z,100575.22
2019-05-25T06:59:19.926Z,100576.55
2019-05-25T07:01:49.661Z,100579.23
2019-05-25T07:04:19.317Z,100579.13
2019-05-25T07:06:48.949Z,100582.87
2019-05-25T07:09:18.697Z,100584.67
2019-05-25T07:11:48.318Z,100587.09
2019-05-25T07:14:17.967Z,100589.68
2019-05-25T07:16:47.593Z,100596.84
2019-05-25T07:19:17.656Z,100601.31
2019-05-25T07:21:47.281Z,100606.41
2019-05-25T07:24:16.937Z,100606.70
2019-05-25T07:26:46.557Z,100600.47
2019-05-25T07:29:16.204Z,100604.52
2019-05-25T07:31:46.216Z,100602.41
2019-05-25T07:34:15.870Z,100605.06
2019-05-25T07:36:45.492Z,100612.98
2019-05-25T07:39:15.494Z,100617.16
2019-05-25T07:41:45.121Z,100620.77
2019-05-25T07:44:15.431Z,100622.22
2019-05-25T07:46:45.057Z,100622.57
2019-05-25T07:49:14.710Z,100632.03
2019-05-25T07:51:44.339Z,100632.94
2019-05-25T07:54:14.672Z,100642.31
2019-05-25T07:56:44.296Z,100637.23
2019-05-25T07:59:13.957Z,100640.55
2019-05-25T08:01:43.578Z,100646.87
2019-05-25T08:04:13.224Z,100650.37
2019-05-25T08:06:43.217Z,100652.81
2019-05-25T08:09:12.868Z,100659.75
2019-05-25T08:11:43.131Z,100658.69
2019-05-25T08:14:12.787Z,100654.36
2019-05-25T08:16:42.421Z,100657.36
2019-05-25T08:19:12.300Z,100649.55
2019-05-25T08:21:41.936Z,100657.27
2019-05-25T08:24:11.609Z,100659.76
2019-05-25T08:26:41.293Z,100653.88
2019-05-25T08:29:11.141Z,100664.20
2019-05-25T08:31:40.985Z,100663.66
2019-05-25T08:34:10.617Z,100656.41
2019-05-25T08:36:40.287Z,100669.41
2019-05-25T08:39:09.923Z,100650.17
2019-05-25T08:41:39.594Z,100659.80
2019-05-25T08:44:09.221Z,100654.88
2019-05-25T08:46:38.881Z,100659.04
2019-05-25T08:49:08.511Z,100663.86
2019-05-25T08:51:38.168Z,100660.69
2019-05-25T08:54:07.800Z,100667.02
2019-05-25T08:56:37.461Z,100669.42
2019-05-25T08:59:07.090Z,100666.58
2019-05-25T09:01:36.739Z,100670.61
2019-05-25T09:04:06.371Z,100667.47
2019-05-25T09:06:36.025Z,100667.02
2019-05-25T09:09:07.803Z,100666.02
2019-05-25T09:11:37.561Z,100671.06
2019-05-25T09:14:07.189Z,100668.09
2019-05-25T09:16:36.855Z,100663.63
2019-05-25T09:19:06.470Z,100662.55
2019-05-25T09:21:36.166Z,100663.11
2019-05-25T09:24:05.838Z,100670.48
2019-05-25T09:26:35.505Z,100667.94
2019-05-25T09:29:05.414Z,100670.45
2019-05-25T09:31:35.164Z,100672.16
2019-05-25T09:34:04.870Z,100669.16
2019-05-25T09:36:34.531Z,100673.92
2019-05-25T09:39:05.669Z,100672.88
2019-05-25T09:41:35.336Z,100675.18
2019-05-25T09:44:05.069Z,100667.55
2019-05-25T09:46:34.907Z,100676.05
2019-05-25T09:49:04.705Z,100675.73
2019-05-25T09:51:34.353Z,100684.66
2019-05-25T09:54:04.063Z,100685.69
2019-05-25T09:56:33.805Z,100684.97
2019-05-25T09:59:17.639Z,100680.13
2019-05-25T10:01:34.791Z,100674.20
2019-05-25T10:04:04.432Z,100675.19
2019-05-25T10:06:34.080Z,100678.81
2019-05-25T10:09:05.616Z,100676.67
2019-05-25T10:11:35.315Z,100675.01
2019-05-25T10:14:05.082Z,100682.47
2019-05-25T10:16:34.734Z,100684.14
2019-05-25T10:19:04.432Z,100682.43
2019-05-25T10:21:34.094Z,100673.78
2019-05-25T10:24:03.715Z,100675.13
2019-05-25T10:26:33.365Z,100671.64
2019-05-25T10:29:03.021Z,100673.48
2019-05-25T10:31:32.668Z,100671.41
2019-05-25T10:34:02.299Z,100648.43
2019-05-25T10:36:32.154Z,100654.73
2019-05-25T10:39:01.783Z,100654.34
2019-05-25T10:41:31.535Z,100653.51
2019-05-25T10:44:01.196Z,100650.37
2019-05-25T10:46:30.871Z,100648.64
2019-05-25T10:49:00.485Z,100651.45
2019-05-25T10:51:30.357Z,100655.05
2019-05-25T10:53:59.985Z,100654.61
2019-05-25T10:56:29.863Z,100656.16
2019-05-25T10:58:59.792Z,100657.65
2019-05-25T11:01:29.747Z,100653.88
2019-05-25T11:03:59.607Z,100650.48
2019-05-25T11:06:29.559Z,100640.61
2019-05-25T11:08:59.217Z,100653.44
2019-05-25T11:11:28.852Z,100657.56
2019-05-25T11:13:58.500Z,100654.24
2019-05-25T11:16:28.127Z,100648.94
2019-05-25T11:18:57.788Z,100658.30
2019-05-25T11:21:27.394Z,100663.13
2019-05-25T11:23:57.045Z,100657.62
2019-05-25T11:26:26.671Z,100662.85
2019-05-25T11:28:56.321Z,100647.99
2019-05-25T11:31:25.944Z,100646.91
2019-05-25T11:33:55.601Z,100639.68
2019-05-25T11:36:25.225Z,100645.42
2019-05-25T11:38:55.089Z,100645.88
2019-05-25T11:41:24.697Z,100641.30
2019-05-25T11:43:54.348Z,100642.34
2019-05-25T11:46:23.971Z,100641.01
2019-05-25T11:48:53.624Z,100648.05
2019-05-25T11:51:23.252Z,100648.51
2019-05-25T11:53:52.907Z,100650.45
2019-05-25T11:56:22.532Z,100648.14
2019-05-25T11:58:52.184Z,100644.35
2019-05-25T12:01:21.809Z,100645.69
2019-05-25T12:03:51.461Z,100631.51
2019-05-25T12:06:21.090Z,100639.75
2019-05-25T12:08:50.748Z,100643.58
2019-05-25T12:11:20.379Z,100646.25
2019-05-25T12:13:50.031Z,100646.74
2019-05-25T12:16:19.662Z,100648.24
2019-05-25T12:18:49.308Z,100648.22
2019-05-25T12:21:18.935Z,100651.41
2019-05-25T12:23:48.608Z,100643.45
2019-05-25T12:26:18.255Z,100645.58
2019-05-25T12:28:48.009Z,100649.12
2019-05-25T12:31:18.092Z,100646.16
2019-05-25T12:33:47.745Z,100641.44
2019-05-25T12:36:18.085Z,100654.20
2019-05-25T12:38:47.756Z,100644.11
2019-05-25T12:41:18.092Z,100644.72
2019-05-25T12:43:47.741Z,100647.64
2019-05-25T12:46:18.064Z,100649.23
2019-05-25T12:48:47.718Z,100640.18
2019-05-25T12:51:18.124Z,100643.76
2019-05-25T12:53:47.812Z,100639.45
2019-05-25T12:56:18.098Z,100644.20
2019-05-25T12:58:50.143Z,100641.34
2019-05-25T13:01:19.085Z,100634.27
2019-05-25T13:03:48.738Z,100654.67
2019-05-25T13:06:18.573Z,100639.02
2019-05-25T13:08:48.201Z,100638.42
2019-05-25T13:11:18.106Z,100639.41
2019-05-25T13:13:47.733Z,100642.03
2019-05-25T13:16:18.132Z,100643.02
2019-05-25T13:18:47.760Z,100639.65
2019-05-25T13:21:18.128Z,100638.20
2019-05-25T13:23:47.750Z,100628.56
2019-05-25T13:26:18.129Z,100628.53
2019-05-25T13:28:47.966Z,100630.97
2019-05-25T13:31:18.101Z,100626.56
2019-05-25T13:33:47.719Z,100635.23
2019-05-25T13:36:18.093Z,100642.14
2019-05-25T13:38:47.727Z,100633.02
2019-05-25T13:41:17.382Z,100640.34
2019-05-25T13:43:49.995Z,100641.14
2019-05-25T13:46:18.450Z,100650.83
2019-05-25T13:48:48.073Z,100641.93
2019-05-25T13:51:18.043Z,100637.64
2019-05-25T13:53:47.660Z,100626.35
2019-05-25T13:56:17.314Z,100632.64
2019-05-25T13:58:46.939Z,100628.69
2019-05-25T14:01:27.950Z,100627.90
2019-05-25T14:03:47.926Z,100635.82
2019-05-25T14:06:18.058Z,100639.69
2019-05-25T14:08:47.689Z,100632.19
2019-05-25T14:11:18.041Z,100632.88
2019-05-25T14:13:47.667Z,100628.81
2019-05-25T14:16:17.318Z,100633.52
2019-05-25T14:18:47.027Z,100633.33
2019-05-25T14:21:16.684Z,100642.28
2019-05-25T14:23:46.595Z,100635.72
2019-05-25T14:26:16.261Z,100632.84
2019-05-25T14:28:45.886Z,100633.73
2019-05-25T14:31:15.809Z,100632.55
2019-05-25T14:33:45.578Z,100623.89
2019-05-25T14:36:15.837Z,100636.53
2019-05-25T14:38:54.108Z,100639.80
2019-05-25T14:41:26.003Z,100627.70
2019-05-25T14:43:55.639Z,100626.83
2019-05-25T14:46:28.195Z,100624.99
2019-05-25T14:48:56.712Z,100626.44
2019-05-25T14:51:26.364Z,100623.87
2019-05-25T14:53:55.988Z,100632.34
2019-05-25T14:56:25.647Z,100627.77
2019-05-25T14:58:55.271Z,100620.66
2019-05-25T15:01:24.923Z,100622.25
2019-05-25T15:03:54.549Z,100622.19
2019-05-25T15:06:24.200Z,100617.72
2019-05-25T15:08:53.825Z,100623.23
2019-05-25T15:11:23.480Z,100625.92
2019-05-25T15:13:53.113Z,100628.73
2019-05-25T15:16:22.768Z,100631.58
2019-05-25T15:18:52.395Z,100628.28
2019-05-25T15:21:22.118Z,100630.63
2019-05-25T15:23:51.737Z,100626.77
2019-05-25T15:26:21.394Z,100637.07
2019-05-25T15:28:51.025Z,100629.91
2019-05-25T15:31:20.727Z,100632.53
2019-05-25T15:33:50.296Z,100634.54
2019-05-25T15:36:19.950Z,100637.52
2019-05-25T15:38:49.590Z,100636.38
2019-05-25T15:41:19.229Z,100640.78
2019-05-25T15:43:48.862Z,100644.25
2019-05-25T15:46:18.510Z,100644.98
2019-05-25T15:48:48.134Z,100641.30
2019-05-25T15:51:18.058Z,100637.95
2019-05-25T15:53:47.966Z,100639.65
2019-05-25T15:56:17.976Z,100634.83
2019-05-25T15:58:47.601Z,100632.84
2019-05-25T16:01:17.262Z,100627.37
2019-05-25T16:03:46.891Z,100643.78
2019-05-25T16:06:16.616Z,100634.14
2019-05-25T16:08:46.616Z,100640.58
2019-05-25T16:11:16.263Z,100643.89
2019-05-25T16:13:45.917Z,100650.15
2019-05-25T16:16:15.807Z,100658.00
2019-05-25T16:18:45.820Z,100652.75
2019-05-25T16:21:15.448Z,100658.77
2019-05-25T16:23:45.766Z,100661.24
2019-05-25T16:26:15.393Z,100661.94
2019-05-25T16:28:45.769Z,100669.16
2019-05-25T16:31:15.493Z,100663.86
2019-05-25T16:33:45.820Z,100665.51
2019-05-25T16:36:15.454Z,100675.07
2019-05-25T16:38:45.829Z,100670.81
2019-05-25T16:41:15.454Z,100676.30
2019-05-25T16:43:45.762Z,100683.56
2019-05-25T16:46:15.431Z,100688.63
2019-05-25T16:48:45.762Z,100687.73
2019-05-25T16:51:15.380Z,100682.05
2019-05-25T16:53:45.033Z,100691.01
2019-05-25T16:56:14.841Z,100688.60
2019-05-25T16:58:44.487Z,100690.17
2019-05-25T17:01:17.733Z,100692.09
2019-05-25T17:03:45.754Z,100687.55
2019-05-25T17:06:15.473Z,100682.75
2019-05-25T17:08:45.766Z,100688.67
2019-05-25T17:11:15.403Z,100694.70
2019-05-25T17:13:45.053Z,100694.23
2019-05-25T17:16:14.911Z,100686.27
2019-05-25T17:18:44.585Z,100693.87
2019-05-25T17:21:14.280Z,100695.70
2019-05-25T17:23:45.749Z,100698.16
2019-05-25T17:26:15.476Z,100692.86
2019-05-25T17:28:45.890Z,100700.38
2019-05-25T17:31:15.509Z,100697.50
2019-05-25T17:33:46.709Z,100694.84
2019-05-25T17:36:16.392Z,100695.09
2019-05-25T17:38:46.634Z,100693.93
2019-05-25T17:41:16.261Z,100693.91
2019-05-25T17:43:45.919Z,100695.11
2019-05-25T17:46:15.540Z,100692.94
2019-05-25T17:48:45.751Z,100700.12
2019-05-25T17:51:15.382Z,100690.69
2019-05-25T17:53:45.046Z,100689.98
2019-05-25T17:56:14.891Z,100693.75
2019-05-25T17:58:44.545Z,100686.03
2019-05-25T18:01:14.172Z,100693.80
2019-05-25T18:04:04.217Z,100685.43
2019-05-25T18:06:16.633Z,100685.48
2019-05-25T18:08:46.549Z,100691.68
2019-05-25T18:11:16.177Z,100683.27
2019-05-25T18:13:45.851Z,100681.78
2019-05-25T18:16:15.477Z,100685.67
2019-05-25T18:18:45.820Z,100686.79
2019-05-25T18:21:15.460Z,100699.64
2019-05-25T18:23:45.756Z,100687.34
2019-05-25T18:26:15.386Z,100686.57
2019-05-25T18:28:45.037Z,100685.95
2019-05-25T18:31:14.872Z,100691.52
2019-05-25T18:33:44.869Z,100692.75
2019-05-25T18:36:14.495Z,100691.98
2019-05-25T18:38:44.222Z,100687.45
2019-05-25T18:41:13.913Z,100686.19
2019-05-25T18:43:43.574Z,100690.28
2019-05-25T18:46:13.400Z,100692.95
2019-05-25T18:48:43.064Z,100692.47
2019-05-25T18:51:12.711Z,100701.33
2019-05-25T18:53:42.634Z,100706.66
2019-05-25T18:56:12.265Z,100705.45
2019-05-25T18:58:41.917Z,100709.80
2019-05-25T19:01:11.565Z,100715.17
2019-05-25T19:03:41.228Z,100719.61
2019-05-25T19:06:10.880Z,100714.27
2019-05-25T19:08:40.533Z,100722.78
2019-05-25T19:11:10.246Z,100720.11
2019-05-25T19:13:39.816Z,100729.14
2019-05-25T19:16:09.464Z,100722.69
2019-05-25T19:18:39.103Z,100729.07
2019-05-25T19:21:08.760Z,100726.77
2019-05-25T19:23:38.386Z,100728.53
2019-05-25T19:26:08.045Z,100728.68
2019-05-25T19:28:37.676Z,100739.16
2019-05-25T19:31:07.325Z,100737.98
2019-05-25T19:33:36.958Z,100735.86
2019-05-25T19:36:06.600Z,100742.08
2019-05-25T19:38:36.423Z,100743.80
2019-05-25T19:41:06.077Z,100744.78
2019-05-25T19:43:35.702Z,100746.34
2019-05-25T19:46:05.374Z,100746.73
2019-05-25T19:48:34.993Z,100752.37
2019-05-25T19:51:04.640Z,100753.46
2019-05-25T19:53:34.370Z,100757.78
2019-05-25T19:56:04.364Z,100758.03
2019-05-25T19:58:34.000Z,100757.44
2019-05-25T20:01:03.642Z,100756.86
2019-05-25T20:03:33.260Z,100755.20
2019-05-25T20:06:02.909Z,100758.08
2019-05-25T20:08:32.537Z,100760.98
2019-05-25T20:11:02.179Z,100761.22
2019-05-25T20:13:31.810Z,100770.48
2019-05-25T20:16:01.729Z,100768.80
2019-05-25T20:18:31.347Z,100767.12
2019-05-25T20:21:01.004Z,100770.98
2019-05-25T20:23:30.724Z,100769.30
2019-05-25T20:26:00.376Z,100767.01
2019-05-25T20:28:30.011Z,100772.14
2019-05-25T20:30:59.652Z,100772.95
2019-05-25T20:33:29.294Z,100778.83
2019-05-25T20:35:58.967Z,100775.59
2019-05-25T20:38:28.587Z,100785.27
2019-05-25T20:40:58.265Z,100786.33
2019-05-25T20:43:27.901Z,100783.55
2019-05-25T20:45:57.573Z,100782.84
2019-05-25T20:48:27.217Z,100780.67
2019-05-25T20:50:57.250Z,100785.19
2019-05-25T20:53:28.475Z,100787.00
2019-05-25T20:55:58.138Z,100793.20
2019-05-25T20:58:27.760Z,100794.38
2019-05-25T21:00:57.428Z,100798.77
2019-05-25T21:03:27.052Z,100798.67
2019-05-25T21:05:56.705Z,100795.50
2019-05-25T21:08:26.469Z,100801.89
2019-05-25T21:10:56.151Z,100803.06
2019-05-25T21:13:25.822Z,100802.06
2019-05-25T21:15:55.525Z,100798.12
2019-05-25T21:18:25.349Z,100806.11
2019-05-25T21:20:55.188Z,100806.92
2019-05-25T21:23:24.913Z,100806.27
2019-05-25T21:25:54.610Z,100809.25
2019-05-25T21:28:24.271Z,100809.77
2019-05-25T21:30:53.937Z,100813.42
2019-05-25T21:33:23.561Z,100812.84
2019-05-25T21:36:07.827Z,100819.73
2019-05-25T21:38:24.628Z,100816.42
2019-05-25T21:40:54.256Z,100818.88
2019-05-25T21:43:23.903Z,100822.72
2019-05-25T21:45:53.530Z,100822.34
2019-05-25T21:48:23.177Z,100818.83
2019-05-25T21:50:52.871Z,100816.74
2019-05-25T21:53:22.533Z,100825.55
2019-05-25T21:55:52.165Z,100818.84
2019-05-25T21:58:21.818Z,100819.95
2019-05-25T22:00:52.211Z,100828.11
2019-05-25T22:03:24.899Z,100820.71
2019-05-25T22:05:55.633Z,100821.88
2019-05-25T22:08:25.283Z,100829.11
2019-05-25T22:10:54.900Z,100825.27
2019-05-25T22:13:28.692Z,100829.75
2019-05-25T22:15:55.881Z,100826.55
2019-05-25T22:18:25.536Z,100828.32
2019-05-25T22:20:55.265Z,100825.84
2019-05-25T22:23:24.935Z,100825.67
2019-05-25T22:25:54.698Z,100826.08
2019-05-25T22:28:24.396Z,100822.94
2019-05-25T22:30:54.391Z,100830.38
2019-05-25T22:33:24.160Z,100829.53
2019-05-25T22:35:53.910Z,100836.75
2019-05-25T22:38:23.645Z,100831.91
2019-05-25T22:40:53.271Z,100837.02
2019-05-25T22:43:23.030Z,100828.25
2019-05-25T22:45:52.761Z,100837.11
2019-05-25T22:48:22.415Z,100825.89
2019-05-25T22:50:52.058Z,100821.70
2019-05-25T22:53:21.712Z,100823.98
2019-05-25T22:55:51.442Z,100828.53
2019-05-25T22:58:21.200Z,100823.87
2019-05-25T23:00:50.932Z,100830.73
2019-05-25T23:03:20.693Z,100828.12
2019-05-25T23:05:50.428Z,100829.75
2019-05-25T23:08:20.186Z,100828.82
2019-05-25T23:10:49.918Z,100829.02
2019-05-25T23:13:19.678Z,100831.17
2019-05-25T23:15:49.410Z,100829.94
2019-05-25T23:18:19.171Z,100825.36
2019-05-25T23:20:48.909Z,100825.55
2019-05-25T23:23:18.672Z,100827.70
2019-05-25T23:25:48.403Z,100816.08
2019-05-25T23:28:18.067Z,100810.68
2019-05-25T23:30:48.116Z,100821.08
2019-05-25T23:33:17.879Z,100820.58
2019-05-25T23:35:47.514Z,100817.92
2019-05-25T23:38:17.176Z,100816.16
2019-05-25T23:40:46.911Z,100815.12
2019-05-25T23:43:16.785Z,100818.00
2019-05-25T23:45:46.441Z,100822.05
2019-05-25T23:48:16.075Z,100818.20
2019-05-25T23:50:45.956Z,100814.45
2019-05-25T23:53:15.581Z,100814.45
2019-05-25T23:55:45.897Z,100812.96
2019-05-25T23:58:15.525Z,100811.19
